Ackworth, Iowa
Current Conditions -  °F | °C
As of 6:54 PM on Sunday 21 Dec 2014 (Local Time) from KDSM Reporting Station
Drizzle Drizzle  
Wind Chill: 36°   Ceiling: 1200
Heat Index: 43°   Visibility: 10mi
Dew Point: 38°   Wind: 14mph
Humidity: 82%   Direction: 170°S
Pressure: 29.8"   Gusts: NA
Location:  41.37°N, 93.47°W
Report Text: KDSM 220054Z 17012KT 10SM -DZ OVC012 06/03 A2980 RMK AO2 DZB53 SLP096 P0000 T00610033
Loading
Personal Weather Stations






























Interactive Weather Map New forecast layout! Learn more

10-Day Weather Forecast

Advertisements
Track Severe Weather on mobile